createdAt,value
2022-12-31T00:01:12.003Z,86.75
2022-12-31T00:03:40.909Z,86.54
2022-12-31T00:06:19.230Z,86.34
2022-12-31T00:08:47.800Z,86.89
2022-12-31T00:11:16.790Z,86.79
2022-12-31T00:13:46.544Z,86.56
2022-12-31T00:16:17.154Z,86.62
2022-12-31T00:18:46.050Z,86.53
2022-12-31T00:21:16.553Z,86.58
2022-12-31T00:23:44.877Z,86.66
2022-12-31T00:26:15.462Z,86.72
2022-12-31T00:28:44.383Z,87.18
2022-12-31T00:31:14.502Z,87.18
2022-12-31T00:33:42.795Z,86.78
2022-12-31T00:36:12.733Z,86.90
2022-12-31T00:38:45.113Z,86.53
2022-12-31T00:41:13.648Z,86.47
2022-12-31T00:43:41.460Z,86.85
2022-12-31T00:46:10.270Z,86.74
2022-12-31T00:48:38.575Z,86.91
2022-12-31T00:51:09.223Z,86.29
2022-12-31T00:53:37.616Z,87.02
2022-12-31T00:56:13.327Z,87.05
2022-12-31T00:58:42.064Z,86.97
2022-12-31T01:01:11.583Z,86.85
2022-12-31T01:03:40.044Z,87.16
2022-12-31T01:06:09.040Z,86.67
2022-12-31T01:08:37.332Z,86.75
2022-12-31T01:11:23.197Z,86.67
2022-12-31T01:13:54.319Z,87.07
2022-12-31T01:16:24.575Z,87.24
2022-12-31T01:18:53.178Z,86.70
2022-12-31T01:21:22.282Z,86.32
2022-12-31T01:23:50.616Z,86.85
2022-12-31T01:26:20.596Z,86.26
2022-12-31T01:28:48.842Z,86.41
2022-12-31T01:31:20.048Z,86.72
2022-12-31T01:33:48.165Z,86.39
2022-12-31T01:36:23.591Z,86.61
2022-12-31T01:38:53.852Z,86.44
2022-12-31T01:41:25.053Z,86.54
2022-12-31T01:43:55.277Z,86.64
2022-12-31T01:46:29.667Z,86.39
2022-12-31T01:49:00.980Z,87.09
2022-12-31T01:51:34.531Z,87.02
2022-12-31T01:54:05.799Z,87.05
2022-12-31T01:56:37.181Z,86.79
2022-12-31T01:59:09.682Z,86.58
2022-12-31T02:01:39.079Z,86.40
2022-12-31T02:04:09.872Z,86.40
2022-12-31T02:06:41.295Z,86.56
2022-12-31T02:09:10.021Z,86.86
2022-12-31T02:11:39.427Z,86.83
2022-12-31T02:14:10.878Z,86.97
2022-12-31T02:16:46.786Z,86.20
2022-12-31T02:19:39.664Z,86.67
2022-12-31T02:22:21.163Z,86.56
2022-12-31T02:25:07.140Z,86.82
2022-12-31T02:27:52.458Z,86.89
2022-12-31T02:30:24.908Z,86.49
2022-12-31T02:33:04.566Z,87.05
2022-12-31T02:35:34.845Z,86.95
2022-12-31T02:38:06.832Z,87.17
2022-12-31T02:40:36.486Z,86.87
2022-12-31T02:43:04.470Z,86.70
2022-12-31T02:45:38.140Z,86.31
2022-12-31T02:48:20.365Z,86.58
2022-12-31T02:50:56.533Z,86.62
2022-12-31T02:53:42.747Z,86.24
2022-12-31T02:56:17.577Z,86.68
2022-12-31T02:59:11.758Z,86.13
2022-12-31T03:02:03.000Z,86.92
2022-12-31T03:04:35.801Z,86.27
2022-12-31T03:07:06.428Z,86.17
2022-12-31T03:09:34.753Z,86.85
2022-12-31T03:12:21.294Z,87.06
2022-12-31T03:14:49.199Z,86.13
2022-12-31T03:17:18.479Z,87.06
2022-12-31T03:20:03.805Z,86.80
2022-12-31T03:22:31.820Z,86.44
2022-12-31T03:25:19.937Z,86.58
2022-12-31T03:27:48.459Z,86.29
2022-12-31T03:30:18.754Z,86.41
2022-12-31T03:32:49.278Z,87.00
2022-12-31T03:35:19.250Z,86.21
2022-12-31T03:37:47.690Z,87.09
2022-12-31T03:40:16.843Z,86.39
2022-12-31T03:42:44.642Z,86.91
2022-12-31T03:45:13.489Z,86.90
2022-12-31T03:47:41.863Z,86.79
2022-12-31T03:50:14.279Z,86.79
2022-12-31T03:52:42.372Z,86.65
2022-12-31T03:55:11.675Z,86.32
2022-12-31T03:57:40.522Z,86.66
2022-12-31T04:00:11.093Z,86.59
2022-12-31T04:02:38.954Z,86.95
2022-12-31T04:05:07.756Z,86.83
2022-12-31T04:07:37.054Z,87.06
2022-12-31T04:10:05.483Z,86.60
2022-12-31T04:12:33.697Z,86.97
2022-12-31T04:15:01.463Z,87.01
2022-12-31T04:17:29.418Z,86.41
2022-12-31T04:19:57.171Z,87.04
2022-12-31T04:22:25.142Z,86.32
2022-12-31T04:24:54.310Z,86.22
2022-12-31T04:27:22.023Z,86.35
2022-12-31T04:29:50.082Z,86.80
2022-12-31T04:32:17.912Z,86.72
2022-12-31T04:34:45.886Z,86.61
2022-12-31T04:37:13.728Z,87.13
2022-12-31T04:39:41.494Z,87.08
2022-12-31T04:42:10.601Z,86.34
2022-12-31T04:44:38.363Z,86.80
2022-12-31T04:47:06.188Z,86.23
2022-12-31T04:49:33.988Z,86.87
2022-12-31T04:52:01.773Z,87.07
2022-12-31T04:54:29.604Z,86.93
2022-12-31T04:56:57.350Z,87.01
2022-12-31T04:59:26.766Z,86.94
2022-12-31T05:01:54.951Z,86.68
2022-12-31T05:04:22.737Z,86.95
2022-12-31T05:06:50.571Z,86.56
2022-12-31T05:09:18.598Z,86.79
2022-12-31T05:11:46.458Z,87.07
2022-12-31T05:14:14.558Z,86.53
2022-12-31T05:16:43.664Z,86.86
2022-12-31T05:19:11.611Z,86.80
2022-12-31T05:21:39.608Z,87.18
2022-12-31T05:24:08.297Z,86.35
2022-12-31T05:26:36.368Z,86.40
2022-12-31T05:29:04.286Z,86.33
2022-12-31T05:31:32.025Z,86.92
2022-12-31T05:34:01.148Z,87.00
2022-12-31T05:36:28.938Z,86.75
2022-12-31T05:38:57.662Z,86.66
2022-12-31T05:41:25.530Z,86.53
2022-12-31T05:43:53.373Z,87.07
2022-12-31T05:46:21.164Z,87.24
2022-12-31T05:48:48.893Z,87.29
2022-12-31T05:51:18.069Z,86.82
2022-12-31T05:53:46.808Z,87.14
2022-12-31T05:56:14.830Z,87.12
2022-12-31T05:58:42.671Z,86.71
2022-12-31T06:01:10.434Z,86.94
2022-12-31T06:03:38.274Z,86.56
2022-12-31T06:06:06.851Z,86.58
2022-12-31T06:08:36.047Z,87.20
2022-12-31T06:11:03.809Z,86.44
2022-12-31T06:13:31.710Z,87.02
2022-12-31T06:15:59.551Z,87.11
2022-12-31T06:18:27.634Z,86.55
2022-12-31T06:20:55.377Z,86.52
2022-12-31T06:23:23.103Z,87.24
2022-12-31T06:25:52.200Z,87.13
2022-12-31T06:28:20.684Z,87.16
2022-12-31T06:30:49.354Z,87.28
2022-12-31T06:33:17.158Z,86.89
2022-12-31T06:35:44.937Z,86.60
2022-12-31T06:38:12.679Z,86.88
2022-12-31T06:40:40.407Z,86.96
2022-12-31T06:43:09.525Z,87.04
2022-12-31T06:45:37.281Z,86.54
2022-12-31T06:48:05.557Z,86.76
2022-12-31T06:50:33.430Z,87.04
2022-12-31T06:53:01.237Z,87.02
2022-12-31T06:55:29.525Z,86.85
2022-12-31T06:57:57.913Z,86.96
2022-12-31T07:00:27.663Z,86.53
2022-12-31T07:03:11.630Z,87.09
2022-12-31T07:05:46.912Z,87.45
2022-12-31T07:08:31.324Z,87.03
2022-12-31T07:11:07.006Z,87.30
2022-12-31T07:14:07.427Z,87.36
2022-12-31T07:16:49.801Z,87.14
2022-12-31T07:19:29.921Z,86.72
2022-12-31T07:21:59.988Z,87.19
2022-12-31T07:24:28.681Z,87.20
2022-12-31T07:27:10.415Z,86.78
2022-12-31T07:29:55.186Z,86.66
2022-12-31T07:32:36.569Z,87.40
2022-12-31T07:35:16.197Z,86.75
2022-12-31T07:37:52.804Z,87.48
2022-12-31T07:40:31.134Z,86.56
2022-12-31T07:43:09.791Z,87.38
2022-12-31T07:45:47.533Z,87.54
2022-12-31T07:48:24.774Z,86.57
2022-12-31T07:50:54.827Z,86.78
2022-12-31T07:53:23.334Z,87.25
2022-12-31T07:55:55.702Z,86.80
2022-12-31T07:58:27.136Z,87.47
2022-12-31T08:00:59.161Z,86.66
2022-12-31T08:03:48.803Z,87.02
2022-12-31T08:06:24.009Z,87.48
2022-12-31T08:08:58.360Z,87.14
2022-12-31T08:11:33.733Z,86.59
2022-12-31T08:14:03.157Z,87.06
2022-12-31T08:16:31.454Z,87.15
2022-12-31T08:19:01.178Z,87.13
2022-12-31T08:21:41.475Z,87.01
2022-12-31T08:24:25.379Z,87.18
2022-12-31T08:27:01.754Z,87.43
2022-12-31T08:29:37.152Z,87.42
2022-12-31T08:32:13.712Z,87.40
2022-12-31T08:34:55.841Z,87.03
2022-12-31T08:37:30.054Z,87.20
2022-12-31T08:40:14.800Z,86.95
2022-12-31T08:42:57.935Z,87.42
2022-12-31T08:45:30.417Z,87.26
2022-12-31T08:48:05.583Z,87.20
2022-12-31T08:50:35.466Z,86.94
2022-12-31T08:53:03.971Z,87.57
2022-12-31T08:55:32.414Z,86.63
2022-12-31T08:58:13.437Z,87.17
2022-12-31T09:00:42.776Z,87.24
2022-12-31T09:03:31.061Z,87.38
2022-12-31T09:06:10.854Z,87.34
2022-12-31T09:08:47.544Z,86.89
2022-12-31T09:11:23.177Z,87.09
2022-12-31T09:14:20.676Z,87.29
2022-12-31T09:16:58.270Z,86.79
2022-12-31T09:19:26.127Z,87.48
2022-12-31T09:21:56.126Z,87.49
2022-12-31T09:24:24.536Z,87.38
2022-12-31T09:27:05.281Z,87.38
2022-12-31T09:29:50.361Z,86.72
2022-12-31T09:32:27.008Z,87.48
2022-12-31T09:34:57.632Z,86.71
2022-12-31T09:37:39.562Z,87.15
2022-12-31T09:40:33.216Z,87.37
2022-12-31T09:43:31.000Z,86.67
2022-12-31T09:46:28.716Z,87.45
2022-12-31T09:49:31.899Z,86.99
2022-12-31T09:52:14.803Z,87.30
2022-12-31T09:54:53.442Z,87.44
2022-12-31T09:57:31.208Z,87.04
2022-12-31T10:00:04.259Z,86.70
2022-12-31T10:02:59.988Z,86.88
2022-12-31T10:05:57.151Z,86.89
2022-12-31T10:08:42.606Z,87.01
2022-12-31T10:11:20.761Z,86.68
2022-12-31T10:14:01.369Z,87.18
2022-12-31T10:16:54.174Z,87.32
2022-12-31T10:19:46.899Z,87.00
2022-12-31T10:22:39.285Z,87.23
2022-12-31T10:25:38.558Z,87.30
2022-12-31T10:28:19.337Z,87.20
2022-12-31T10:30:56.104Z,86.98
2022-12-31T10:33:40.311Z,87.08
2022-12-31T10:36:16.629Z,87.31
2022-12-31T10:38:56.457Z,87.30
2022-12-31T10:42:01.784Z,87.04
2022-12-31T10:44:55.250Z,86.60
2022-12-31T10:48:06.384Z,87.39
2022-12-31T10:51:03.924Z,87.03
2022-12-31T10:53:54.543Z,87.02
2022-12-31T10:56:58.541Z,87.14
2022-12-31T10:59:54.863Z,87.34
2022-12-31T11:02:51.611Z,87.22
2022-12-31T11:06:00.664Z,86.86
2022-12-31T11:08:53.118Z,87.13
2022-12-31T11:11:32.827Z,86.97
2022-12-31T11:14:27.213Z,86.79
2022-12-31T11:17:13.514Z,87.10
2022-12-31T11:19:51.374Z,86.78
2022-12-31T11:22:37.361Z,86.88
2022-12-31T11:25:31.365Z,86.75
2022-12-31T11:28:11.699Z,86.95
2022-12-31T11:30:50.121Z,87.05
2022-12-31T11:33:34.952Z,87.01
2022-12-31T11:36:16.717Z,87.34
2022-12-31T11:38:51.665Z,87.22
2022-12-31T11:41:29.282Z,87.13
2022-12-31T11:44:04.043Z,87.24
2022-12-31T11:46:59.483Z,87.17
2022-12-31T11:50:02.382Z,86.54
2022-12-31T11:52:54.912Z,87.22
2022-12-31T11:55:42.510Z,86.71
2022-12-31T11:58:16.038Z,86.85
2022-12-31T12:00:53.169Z,86.97
2022-12-31T12:03:21.224Z,86.91
2022-12-31T12:05:50.378Z,87.05
2022-12-31T12:08:18.840Z,86.75
2022-12-31T12:10:49.068Z,86.62
2022-12-31T12:13:24.763Z,86.89
2022-12-31T12:15:55.461Z,87.00
2022-12-31T12:18:30.070Z,87.04
2022-12-31T12:21:10.527Z,86.89
2022-12-31T12:23:39.278Z,86.99
2022-12-31T12:26:08.725Z,86.86
2022-12-31T12:28:45.512Z,86.58
2022-12-31T12:31:22.414Z,86.57
2022-12-31T12:33:51.881Z,86.62
2022-12-31T12:36:22.007Z,86.58
2022-12-31T12:38:50.348Z,86.97
2022-12-31T12:41:25.376Z,86.55
2022-12-31T12:44:04.154Z,86.78
2022-12-31T12:46:34.534Z,86.66
2022-12-31T12:49:05.104Z,86.86
2022-12-31T12:51:51.926Z,86.84
2022-12-31T12:54:33.650Z,86.94
2022-12-31T12:57:10.506Z,86.56
2022-12-31T13:00:01.757Z,86.60
2022-12-31T13:02:48.761Z,86.86
2022-12-31T13:05:28.583Z,86.86
2022-12-31T13:08:10.812Z,86.92
2022-12-31T13:10:51.180Z,86.77
2022-12-31T13:13:29.912Z,87.01
2022-12-31T13:16:07.819Z,86.71
2022-12-31T13:18:50.922Z,86.78
2022-12-31T13:21:38.603Z,86.57
2022-12-31T13:24:19.548Z,86.58
2022-12-31T13:26:54.614Z,86.49
2022-12-31T13:29:27.476Z,86.92
2022-12-31T13:31:57.822Z,86.47
2022-12-31T13:34:30.182Z,86.71
2022-12-31T13:37:03.272Z,86.57
2022-12-31T13:39:38.265Z,86.70
2022-12-31T13:42:14.155Z,86.65
2022-12-31T13:44:49.100Z,86.64
2022-12-31T13:47:22.895Z,86.61
2022-12-31T13:49:57.733Z,86.52
2022-12-31T13:52:31.801Z,86.82
2022-12-31T13:55:10.627Z,86.41
2022-12-31T13:57:44.156Z,86.36
2022-12-31T14:00:21.746Z,86.62
2022-12-31T14:02:59.611Z,86.66
2022-12-31T14:05:33.875Z,86.34
2022-12-31T14:08:03.806Z,86.33
2022-12-31T14:10:42.780Z,86.19
2022-12-31T14:13:34.181Z,86.38
2022-12-31T14:16:12.756Z,85.96
2022-12-31T14:18:46.949Z,86.65
2022-12-31T14:21:22.586Z,86.22
2022-12-31T14:23:58.257Z,85.91
2022-12-31T14:26:32.280Z,86.62
2022-12-31T14:29:08.393Z,86.75
2022-12-31T14:31:54.298Z,86.56
2022-12-31T14:34:31.585Z,86.78
2022-12-31T14:37:05.273Z,86.05
2022-12-31T14:39:46.093Z,86.00
2022-12-31T14:42:24.553Z,86.24
2022-12-31T14:45:06.231Z,86.12
2022-12-31T14:47:45.624Z,86.47
2022-12-31T14:50:17.401Z,86.40
2022-12-31T14:52:51.135Z,86.20
2022-12-31T14:55:28.101Z,86.13
2022-12-31T15:00:54.967Z,86.36
2022-12-31T15:03:34.848Z,86.61
2022-12-31T15:06:42.549Z,86.25
2022-12-31T15:09:21.507Z,86.53
2022-12-31T15:12:22.124Z,85.88
2022-12-31T15:15:24.970Z,85.99
2022-12-31T15:18:08.901Z,86.00
2022-12-31T15:20:52.444Z,86.15
2022-12-31T15:23:23.772Z,85.92
2022-12-31T15:25:58.237Z,86.15
2022-12-31T15:28:32.484Z,85.94
2022-12-31T15:31:06.653Z,85.93
2022-12-31T15:33:38.806Z,86.33
2022-12-31T15:36:16.310Z,86.28
2022-12-31T15:38:45.082Z,85.97
2022-12-31T15:41:38.153Z,85.68
2022-12-31T15:44:14.548Z,86.52
2022-12-31T15:46:44.318Z,85.58
2022-12-31T15:49:16.607Z,86.21
2022-12-31T15:51:48.467Z,85.91
2022-12-31T15:54:24.997Z,85.87
2022-12-31T15:56:54.191Z,85.98
2022-12-31T15:59:23.928Z,85.73
2022-12-31T16:01:55.554Z,85.73
2022-12-31T16:04:26.595Z,85.91
2022-12-31T16:06:54.781Z,85.79
2022-12-31T16:09:26.284Z,85.80
2022-12-31T16:11:56.077Z,86.17
2022-12-31T16:14:26.777Z,85.79
2022-12-31T16:16:58.564Z,85.66
2022-12-31T16:19:35.676Z,85.75
2022-12-31T16:22:10.145Z,85.94
2022-12-31T16:25:02.903Z,86.15
2022-12-31T16:27:28.463Z,86.15
2022-12-31T16:30:00.899Z,85.77
2022-12-31T16:32:38.758Z,85.59
2022-12-31T16:35:23.849Z,86.12
2022-12-31T16:38:02.434Z,86.11
2022-12-31T16:40:30.788Z,85.94
2022-12-31T16:42:58.646Z,85.67
2022-12-31T16:45:33.064Z,85.52
2022-12-31T16:48:14.532Z,85.85
2022-12-31T16:50:46.125Z,86.05
2022-12-31T16:53:17.845Z,85.57
2022-12-31T16:55:53.027Z,85.90
2022-12-31T16:58:26.209Z,85.60
2022-12-31T17:00:55.715Z,85.83
2022-12-31T17:03:26.881Z,85.64
2022-12-31T17:05:58.543Z,85.49
2022-12-31T17:08:29.147Z,85.57
2022-12-31T17:10:57.481Z,85.61
2022-12-31T17:13:32.096Z,86.02
2022-12-31T17:16:01.021Z,85.48
2022-12-31T17:18:38.129Z,85.99
2022-12-31T17:21:09.880Z,85.45
2022-12-31T17:23:39.839Z,85.81
2022-12-31T17:26:12.036Z,85.68
2022-12-31T17:28:44.874Z,85.98
2022-12-31T17:31:35.876Z,85.87
2022-12-31T17:34:23.786Z,85.89
2022-12-31T17:37:01.063Z,85.73
2022-12-31T17:39:42.471Z,85.70
2022-12-31T17:42:11.763Z,85.45
2022-12-31T17:44:41.832Z,85.58
2022-12-31T17:47:14.029Z,85.67
2022-12-31T17:49:46.700Z,85.82
2022-12-31T17:52:17.119Z,85.45
2022-12-31T17:54:44.933Z,85.41
2022-12-31T17:57:24.589Z,85.23
2022-12-31T17:59:52.649Z,85.27
2022-12-31T18:02:20.746Z,85.70
2022-12-31T18:04:50.024Z,85.59
2022-12-31T18:07:17.749Z,85.36
2022-12-31T18:09:46.214Z,85.32
2022-12-31T18:12:15.741Z,85.79
2022-12-31T18:14:46.593Z,85.20
2022-12-31T18:17:16.574Z,85.00
2022-12-31T18:22:33.528Z,85.53
2022-12-31T18:25:01.654Z,85.63
2022-12-31T18:27:30.646Z,85.48
2022-12-31T18:30:04.467Z,85.18
2022-12-31T18:32:33.999Z,85.22
2022-12-31T18:35:02.046Z,85.00
2022-12-31T18:37:30.317Z,85.07
2022-12-31T18:39:59.397Z,84.98
2022-12-31T18:42:28.840Z,85.12
2022-12-31T18:44:56.840Z,84.86
2022-12-31T18:47:24.546Z,85.41
2022-12-31T18:49:52.495Z,85.07
2022-12-31T18:52:23.417Z,84.83
2022-12-31T18:54:51.124Z,85.11
2022-12-31T18:57:20.703Z,84.76
2022-12-31T18:59:48.494Z,85.62
2022-12-31T19:02:19.530Z,84.88
2022-12-31T19:04:47.353Z,84.92
2022-12-31T19:07:15.193Z,84.74
2022-12-31T19:09:45.657Z,85.08
2022-12-31T19:12:15.352Z,84.64
2022-12-31T19:14:45.521Z,85.08
2022-12-31T19:17:13.339Z,85.14
2022-12-31T19:19:41.143Z,84.87
2022-12-31T19:22:14.490Z,84.71
2022-12-31T19:24:42.313Z,84.67
2022-12-31T19:27:11.224Z,84.90
2022-12-31T19:29:39.003Z,84.79
2022-12-31T19:32:10.005Z,85.09
2022-12-31T19:34:37.810Z,85.04
2022-12-31T19:37:05.629Z,84.53
2022-12-31T19:39:33.404Z,84.79
2022-12-31T19:42:01.795Z,84.97
2022-12-31T19:44:29.592Z,85.18
2022-12-31T19:46:57.439Z,84.95
2022-12-31T19:49:26.543Z,85.08
2022-12-31T19:51:54.888Z,84.70
2022-12-31T19:54:22.736Z,85.23
2022-12-31T19:56:50.500Z,85.20
2022-12-31T19:59:18.233Z,84.98
2022-12-31T20:01:46.347Z,84.41
2022-12-31T20:04:14.587Z,85.19
2022-12-31T20:06:43.662Z,85.04
2022-12-31T20:09:12.279Z,84.55
2022-12-31T20:11:40.265Z,84.09
2022-12-31T20:14:07.960Z,84.97
2022-12-31T20:16:35.752Z,85.05
2022-12-31T20:19:03.543Z,84.62
2022-12-31T20:21:31.277Z,84.76
2022-12-31T20:24:00.650Z,84.74
2022-12-31T20:26:28.389Z,84.91
2022-12-31T20:28:56.187Z,84.89
2022-12-31T20:31:26.036Z,84.74
2022-12-31T20:33:54.940Z,84.34
2022-12-31T20:36:24.054Z,84.61
2022-12-31T20:38:52.209Z,84.24
2022-12-31T20:41:23.615Z,84.31
2022-12-31T20:43:51.757Z,84.74
2022-12-31T20:46:21.535Z,84.37
2022-12-31T20:48:51.287Z,84.35
2022-12-31T20:51:20.218Z,84.61
2022-12-31T20:53:49.076Z,83.92
2022-12-31T20:56:18.284Z,84.26
2022-12-31T20:58:47.827Z,84.03
2022-12-31T21:01:17.109Z,84.67
2022-12-31T21:06:35.715Z,83.90
2022-12-31T21:09:06.119Z,84.41
2022-12-31T21:11:51.365Z,84.06
2022-12-31T21:14:20.947Z,84.02
2022-12-31T21:16:48.937Z,84.66
2022-12-31T21:19:16.729Z,84.43
2022-12-31T21:21:44.465Z,84.39
2022-12-31T21:24:12.874Z,84.41
2022-12-31T21:26:40.660Z,84.45
2022-12-31T21:29:08.374Z,83.98
2022-12-31T21:31:37.445Z,84.23
2022-12-31T21:34:07.618Z,84.27
2022-12-31T21:36:35.372Z,83.96
2022-12-31T21:39:03.278Z,84.31
2022-12-31T21:41:48.427Z,84.16
2022-12-31T21:44:16.197Z,83.85
2022-12-31T21:47:16.044Z,83.88
2022-12-31T21:49:33.133Z,84.16
2022-12-31T21:52:18.855Z,84.17
2022-12-31T21:55:03.894Z,84.16
2022-12-31T21:57:46.233Z,83.89
2022-12-31T22:00:42.640Z,84.08
2022-12-31T22:03:27.804Z,83.95
2022-12-31T22:05:59.506Z,83.99
2022-12-31T22:08:28.494Z,84.14
2022-12-31T22:10:56.290Z,83.70
2022-12-31T22:13:24.440Z,83.58
2022-12-31T22:16:00.276Z,84.19
2022-12-31T22:18:35.633Z,83.67
2022-12-31T22:21:05.770Z,83.85
2022-12-31T22:23:35.122Z,83.72
2022-12-31T22:26:04.119Z,83.95
2022-12-31T22:28:40.328Z,83.68
2022-12-31T22:31:09.080Z,83.69
2022-12-31T22:33:38.485Z,83.75
2022-12-31T22:36:08.395Z,83.50
2022-12-31T22:38:36.270Z,83.98
2022-12-31T22:41:09.491Z,83.83
2022-12-31T22:43:39.514Z,83.84
2022-12-31T22:46:11.960Z,83.97
2022-12-31T22:48:41.897Z,83.76
2022-12-31T22:51:10.989Z,83.71
2022-12-31T22:53:39.694Z,83.75
2022-12-31T22:56:08.572Z,83.79
2022-12-31T22:58:36.368Z,83.46
2022-12-31T23:01:06.797Z,83.71
2022-12-31T23:03:34.770Z,83.64
2022-12-31T23:06:04.263Z,83.48
2022-12-31T23:08:32.273Z,83.63
2022-12-31T23:11:05.654Z,83.43
2022-12-31T23:13:56.956Z,83.54
2022-12-31T23:16:43.046Z,83.71
2022-12-31T23:19:29.308Z,83.74
2022-12-31T23:22:15.947Z,83.65
2022-12-31T23:24:44.075Z,83.47
2022-12-31T23:27:15.226Z,83.58
2022-12-31T23:29:47.067Z,83.54
2022-12-31T23:32:15.827Z,83.37
2022-12-31T23:34:44.583Z,83.52
2022-12-31T23:37:14.255Z,83.38
2022-12-31T23:39:42.685Z,83.27
2022-12-31T23:42:10.464Z,83.61
2022-12-31T23:44:38.335Z,83.51
2022-12-31T23:47:06.339Z,83.71
2022-12-31T23:49:34.097Z,83.45
2022-12-31T23:52:02.076Z,83.49
2022-12-31T23:54:31.215Z,83.49
2022-12-31T23:56:59.156Z,83.56
2022-12-31T23:59:26.963Z,83.63
